sensor_id;sensor_type;location;lat;lon;timestamp;temperature;humidity
37806;DHT22;25082;50.870;0.022;2022-09-20T00:02:19;19.60;68.00
37806;DHT22;25082;50.870;0.022;2022-09-20T00:04:47;19.60;68.00
37806;DHT22;25082;50.870;0.022;2022-09-20T00:07:13;19.60;68.00
37806;DHT22;25082;50.870;0.022;2022-09-20T00:09:38;19.60;68.00
37806;DHT22;25082;50.870;0.022;2022-09-20T00:12:05;19.60;68.00
37806;DHT22;25082;50.870;0.022;2022-09-20T00:14:31;19.60;68.00
37806;DHT22;25082;50.870;0.022;2022-09-20T00:16:57;19.60;68.00
37806;DHT22;25082;50.870;0.022;2022-09-20T00:19:23;19.60;68.60
37806;DHT22;25082;50.870;0.022;2022-09-20T00:21:48;19.60;68.00
37806;DHT22;25082;50.870;0.022;2022-09-20T00:24:14;19.60;68.00
37806;DHT22;25082;50.870;0.022;2022-09-20T00:26:40;19.60;68.00
37806;DHT22;25082;50.870;0.022;2022-09-20T00:29:06;19.60;68.10
37806;DHT22;25082;50.870;0.022;2022-09-20T00:31:32;19.60;68.10
37806;DHT22;25082;50.870;0.022;2022-09-20T00:33:58;19.60;68.10
37806;DHT22;25082;50.870;0.022;2022-09-20T00:36:42;19.60;68.10
37806;DHT22;25082;50.870;0.022;2022-09-20T00:39:11;19.60;68.20
37806;DHT22;25082;50.870;0.022;2022-09-20T00:41:37;19.50;68.10
37806;DHT22;25082;50.870;0.022;2022-09-20T00:47:15;19.60;68.20
37806;DHT22;25082;50.870;0.022;2022-09-20T00:49:42;19.60;68.20
37806;DHT22;25082;50.870;0.022;2022-09-20T00:52:08;19.60;68.20
37806;DHT22;25082;50.870;0.022;2022-09-20T00:54:34;19.60;68.20
37806;DHT22;25082;50.870;0.022;2022-09-20T00:57:00;19.60;68.20
37806;DHT22;25082;50.870;0.022;2022-09-20T00:59:33;19.50;68.20
37806;DHT22;25082;50.870;0.022;2022-09-20T01:02:08;19.50;68.20
37806;DHT22;25082;50.870;0.022;2022-09-20T01:04:38;19.60;68.20
37806;DHT22;25082;50.870;0.022;2022-09-20T01:07:06;19.50;68.20
37806;DHT22;25082;50.870;0.022;2022-09-20T01:09:33;19.50;68.20
37806;DHT22;25082;50.870;0.022;2022-09-20T01:12:02;19.60;68.30
37806;DHT22;25082;50.870;0.022;2022-09-20T01:14:30;19.50;68.20
37806;DHT22;25082;50.870;0.022;2022-09-20T01:17:02;19.50;68.20
37806;DHT22;25082;50.870;0.022;2022-09-20T01:25:16;19.50;68.30
37806;DHT22;25082;50.870;0.022;2022-09-20T01:27:51;19.50;68.30
37806;DHT22;25082;50.870;0.022;2022-09-20T01:30:27;19.50;68.30
37806;DHT22;25082;50.870;0.022;2022-09-20T01:35:34;19.50;68.30
37806;DHT22;25082;50.870;0.022;2022-09-20T01:40:42;19.50;68.30
37806;DHT22;25082;50.870;0.022;2022-09-20T01:43:18;19.50;68.30
37806;DHT22;25082;50.870;0.022;2022-09-20T01:45:47;19.50;68.30
37806;DHT22;25082;50.870;0.022;2022-09-20T01:53:48;19.50;68.40
37806;DHT22;25082;50.870;0.022;2022-09-20T02:10:30;19.50;68.40
37806;DHT22;25082;50.870;0.022;2022-09-20T02:16:44;19.50;68.40
37806;DHT22;25082;50.870;0.022;2022-09-20T02:22:56;19.50;68.40
37806;DHT22;25082;50.870;0.022;2022-09-20T02:42:17;19.50;68.50
37806;DHT22;25082;50.870;0.022;2022-09-20T02:52:59;19.50;68.50
37806;DHT22;25082;50.870;0.022;2022-09-20T03:01:34;19.40;68.50
37806;DHT22;25082;50.870;0.022;2022-09-20T03:09:40;19.40;68.50
37806;DHT22;25082;50.870;0.022;2022-09-20T03:12:13;19.50;68.50
37806;DHT22;25082;50.870;0.022;2022-09-20T03:20:38;19.40;68.50
37806;DHT22;25082;50.870;0.022;2022-09-20T03:29:45;19.40;68.50
37806;DHT22;25082;50.870;0.022;2022-09-20T03:34:50;19.40;68.50
37806;DHT22;25082;50.870;0.022;2022-09-20T03:43:45;19.40;68.50
37806;DHT22;25082;50.870;0.022;2022-09-20T03:46:24;19.40;68.50
37806;DHT22;25082;50.870;0.022;2022-09-20T03:55:02;19.40;68.50
37806;DHT22;25082;50.870;0.022;2022-09-20T04:15:34;19.40;68.50
37806;DHT22;25082;50.870;0.022;2022-09-20T04:18:21;19.40;68.60
37806;DHT22;25082;50.870;0.022;2022-09-20T04:20:50;19.40;68.60
37806;DHT22;25082;50.870;0.022;2022-09-20T04:23:54;19.40;68.60
37806;DHT22;25082;50.870;0.022;2022-09-20T04:26:28;19.40;68.60
37806;DHT22;25082;50.870;0.022;2022-09-20T04:29:07;19.40;68.60
37806;DHT22;25082;50.870;0.022;2022-09-20T04:31:45;19.30;69.20
37806;DHT22;25082;50.870;0.022;2022-09-20T04:34:21;19.30;68.50
37806;DHT22;25082;50.870;0.022;2022-09-20T04:37:18;19.30;68.50
37806;DHT22;25082;50.870;0.022;2022-09-20T04:39:55;19.30;68.50
37806;DHT22;25082;50.870;0.022;2022-09-20T04:42:45;19.30;68.50
37806;DHT22;25082;50.870;0.022;2022-09-20T05:16:08;19.30;68.50
37806;DHT22;25082;50.870;0.022;2022-09-20T05:21:46;19.30;68.50
37806;DHT22;25082;50.870;0.022;2022-09-20T05:30:03;19.30;68.50
37806;DHT22;25082;50.870;0.022;2022-09-20T05:44:09;19.30;68.50
37806;DHT22;25082;50.870;0.022;2022-09-20T05:47:16;19.30;68.50
37806;DHT22;25082;50.870;0.022;2022-09-20T05:49:58;19.20;68.40
37806;DHT22;25082;50.870;0.022;2022-09-20T05:52:35;19.30;68.50
37806;DHT22;25082;50.870;0.022;2022-09-20T05:55:29;19.30;68.50
37806;DHT22;25082;50.870;0.022;2022-09-20T05:58:28;19.30;68.50
37806;DHT22;25082;50.870;0.022;2022-09-20T06:03:34;19.20;68.50
37806;DHT22;25082;50.870;0.022;2022-09-20T06:09:24;19.20;68.50
37806;DHT22;25082;50.870;0.022;2022-09-20T06:14:42;19.20;68.50
37806;DHT22;25082;50.870;0.022;2022-09-20T06:22:44;19.20;68.50
37806;DHT22;25082;50.870;0.022;2022-09-20T06:27:58;19.20;68.40
37806;DHT22;25082;50.870;0.022;2022-09-20T06:30:30;19.20;68.50
37806;DHT22;25082;50.870;0.022;2022-09-20T06:33:14;19.20;68.50
37806;DHT22;25082;50.870;0.022;2022-09-20T06:42:14;19.20;68.40
37806;DHT22;25082;50.870;0.022;2022-09-20T06:44:40;19.20;68.40
37806;DHT22;25082;50.870;0.022;2022-09-20T06:47:12;19.20;68.40
37806;DHT22;25082;50.870;0.022;2022-09-20T06:49:38;19.20;68.40
37806;DHT22;25082;50.870;0.022;2022-09-20T06:52:09;19.20;68.50
37806;DHT22;25082;50.870;0.022;2022-09-20T06:54:37;19.20;68.50
37806;DHT22;25082;50.870;0.022;2022-09-20T06:57:05;19.20;68.50
37806;DHT22;25082;50.870;0.022;2022-09-20T06:59:31;19.20;68.40
37806;DHT22;25082;50.870;0.022;2022-09-20T07:01:57;19.20;68.40
37806;DHT22;25082;50.870;0.022;2022-09-20T07:04:23;19.20;68.40
37806;DHT22;25082;50.870;0.022;2022-09-20T07:06:54;19.20;68.40
37806;DHT22;25082;50.870;0.022;2022-09-20T07:09:23;19.20;68.50
37806;DHT22;25082;50.870;0.022;2022-09-20T07:11:49;19.20;68.40
37806;DHT22;25082;50.870;0.022;2022-09-20T07:14:15;19.20;68.40
37806;DHT22;25082;50.870;0.022;2022-09-20T07:16:41;19.20;68.50
37806;DHT22;25082;50.870;0.022;2022-09-20T07:19:06;19.20;68.50
37806;DHT22;25082;50.870;0.022;2022-09-20T07:21:32;19.20;68.40
37806;DHT22;25082;50.870;0.022;2022-09-20T07:23:58;19.20;68.50
37806;DHT22;25082;50.870;0.022;2022-09-20T07:26:26;19.10;68.40
37806;DHT22;25082;50.870;0.022;2022-09-20T07:28:53;19.20;68.50
37806;DHT22;25082;50.870;0.022;2022-09-20T07:31:21;19.20;68.50
37806;DHT22;25082;50.870;0.022;2022-09-20T07:33:47;19.20;68.50
37806;DHT22;25082;50.870;0.022;2022-09-20T07:36:14;19.20;68.50
37806;DHT22;25082;50.870;0.022;2022-09-20T07:38:41;19.20;68.50
37806;DHT22;25082;50.870;0.022;2022-09-20T07:41:08;19.20;68.60
37806;DHT22;25082;50.870;0.022;2022-09-20T07:43:35;19.20;68.60
37806;DHT22;25082;50.870;0.022;2022-09-20T07:46:01;19.20;68.60
37806;DHT22;25082;50.870;0.022;2022-09-20T07:48:30;19.20;68.60
37806;DHT22;25082;50.870;0.022;2022-09-20T07:51:06;19.20;68.60
37806;DHT22;25082;50.870;0.022;2022-09-20T07:53:32;19.20;68.60
37806;DHT22;25082;50.870;0.022;2022-09-20T07:56:19;19.10;68.60
37806;DHT22;25082;50.870;0.022;2022-09-20T07:58:45;19.10;68.60
37806;DHT22;25082;50.870;0.022;2022-09-20T08:01:12;19.20;68.70
37806;DHT22;25082;50.870;0.022;2022-09-20T08:03:39;19.20;68.70
37806;DHT22;25082;50.870;0.022;2022-09-20T08:06:07;19.20;68.60
37806;DHT22;25082;50.870;0.022;2022-09-20T08:08:37;19.10;68.60
37806;DHT22;25082;50.870;0.022;2022-09-20T08:11:17;19.20;68.70
37806;DHT22;25082;50.870;0.022;2022-09-20T08:13:48;19.10;68.60
37806;DHT22;25082;50.870;0.022;2022-09-20T08:16:15;19.20;68.70
37806;DHT22;25082;50.870;0.022;2022-09-20T08:18:56;19.20;68.70
37806;DHT22;25082;50.870;0.022;2022-09-20T08:21:25;19.20;68.70
37806;DHT22;25082;50.870;0.022;2022-09-20T08:23:51;19.20;68.70
37806;DHT22;25082;50.870;0.022;2022-09-20T08:26:20;19.10;68.70
37806;DHT22;25082;50.870;0.022;2022-09-20T08:28:47;19.20;68.70
37806;DHT22;25082;50.870;0.022;2022-09-20T08:31:17;19.20;68.70
37806;DHT22;25082;50.870;0.022;2022-09-20T08:33:44;19.20;68.80
37806;DHT22;25082;50.870;0.022;2022-09-20T08:36:19;19.20;68.80
37806;DHT22;25082;50.870;0.022;2022-09-20T08:38:46;19.20;68.90
37806;DHT22;25082;50.870;0.022;2022-09-20T08:41:17;19.20;69.00
37806;DHT22;25082;50.870;0.022;2022-09-20T08:43:54;19.30;69.00
37806;DHT22;25082;50.870;0.022;2022-09-20T08:46:29;19.30;69.20
37806;DHT22;25082;50.870;0.022;2022-09-20T08:48:59;19.20;69.20
37806;DHT22;25082;50.870;0.022;2022-09-20T08:51:29;19.30;69.30
37806;DHT22;25082;50.870;0.022;2022-09-20T08:53:57;19.30;69.30
37806;DHT22;25082;50.870;0.022;2022-09-20T08:56:25;19.30;69.30
37806;DHT22;25082;50.870;0.022;2022-09-20T08:58:53;19.30;69.50
37806;DHT22;25082;50.870;0.022;2022-09-20T09:01:22;19.30;69.60
37806;DHT22;25082;50.870;0.022;2022-09-20T09:03:58;19.30;67.70
37806;DHT22;25082;50.870;0.022;2022-09-20T09:06:26;19.30;67.40
37806;DHT22;25082;50.870;0.022;2022-09-20T09:08:54;19.30;68.20
37806;DHT22;25082;50.870;0.022;2022-09-20T09:11:22;19.30;68.70
37806;DHT22;25082;50.870;0.022;2022-09-20T09:14:12;19.30;68.90
37806;DHT22;25082;50.870;0.022;2022-09-20T09:16:59;19.30;69.10
37806;DHT22;25082;50.870;0.022;2022-09-20T09:19:31;19.30;69.10
37806;DHT22;25082;50.870;0.022;2022-09-20T09:22:03;19.30;69.20
37806;DHT22;25082;50.870;0.022;2022-09-20T09:24:31;19.30;69.20
37806;DHT22;25082;50.870;0.022;2022-09-20T09:29:32;19.30;69.30
37806;DHT22;25082;50.870;0.022;2022-09-20T09:32:33;19.30;69.20
37806;DHT22;25082;50.870;0.022;2022-09-20T09:38:00;19.40;69.30
37806;DHT22;25082;50.870;0.022;2022-09-20T09:40:28;19.40;69.30
37806;DHT22;25082;50.870;0.022;2022-09-20T09:42:58;19.40;69.20
37806;DHT22;25082;50.870;0.022;2022-09-20T09:47:58;19.40;69.30
37806;DHT22;25082;50.870;0.022;2022-09-20T09:50:29;19.40;69.30
37806;DHT22;25082;50.870;0.022;2022-09-20T09:53:16;19.40;69.20
37806;DHT22;25082;50.870;0.022;2022-09-20T10:01:07;19.40;69.40
37806;DHT22;25082;50.870;0.022;2022-09-20T10:03:55;19.40;69.20
37806;DHT22;25082;50.870;0.022;2022-09-20T10:06:39;19.40;69.30
37806;DHT22;25082;50.870;0.022;2022-09-20T10:17:43;19.50;69.30
37806;DHT22;25082;50.870;0.022;2022-09-20T10:20:57;19.50;69.30
37806;DHT22;25082;50.870;0.022;2022-09-20T10:24:12;19.50;69.00
37806;DHT22;25082;50.870;0.022;2022-09-20T10:37:46;19.50;69.20
37806;DHT22;25082;50.870;0.022;2022-09-20T10:41:01;19.50;69.10
37806;DHT22;25082;50.870;0.022;2022-09-20T10:44:19;19.50;68.90
37806;DHT22;25082;50.870;0.022;2022-09-20T10:47:04;19.50;69.20
37806;DHT22;25082;50.870;0.022;2022-09-20T11:00:30;19.60;69.20
37806;DHT22;25082;50.870;0.022;2022-09-20T11:03:06;19.50;69.00
37806;DHT22;25082;50.870;0.022;2022-09-20T11:08:32;19.60;69.20
37806;DHT22;25082;50.870;0.022;2022-09-20T11:11:00;19.60;69.20
37806;DHT22;25082;50.870;0.022;2022-09-20T11:16:13;19.60;69.30
37806;DHT22;25082;50.870;0.022;2022-09-20T11:21:56;19.60;69.10
37806;DHT22;25082;50.870;0.022;2022-09-20T11:24:45;19.60;69.10
37806;DHT22;25082;50.870;0.022;2022-09-20T11:27:33;19.60;69.00
37806;DHT22;25082;50.870;0.022;2022-09-20T11:30:21;19.60;69.00
37806;DHT22;25082;50.870;0.022;2022-09-20T11:33:24;19.70;69.00
37806;DHT22;25082;50.870;0.022;2022-09-20T11:35:59;19.70;68.80
37806;DHT22;25082;50.870;0.022;2022-09-20T11:38:46;19.70;68.80
37806;DHT22;25082;50.870;0.022;2022-09-20T11:41:26;19.70;68.70
37806;DHT22;25082;50.870;0.022;2022-09-20T11:43:56;19.70;68.80
37806;DHT22;25082;50.870;0.022;2022-09-20T11:46:31;19.70;68.80
37806;DHT22;25082;50.870;0.022;2022-09-20T11:49:14;19.70;68.70
37806;DHT22;25082;50.870;0.022;2022-09-20T11:58:00;19.70;68.70
37806;DHT22;25082;50.870;0.022;2022-09-20T12:00:29;19.70;68.90
37806;DHT22;25082;50.870;0.022;2022-09-20T12:02:57;19.70;68.90
37806;DHT22;25082;50.870;0.022;2022-09-20T12:05:30;19.70;68.80
37806;DHT22;25082;50.870;0.022;2022-09-20T12:08:01;19.70;68.80
37806;DHT22;25082;50.870;0.022;2022-09-20T12:10:31;19.70;68.80
37806;DHT22;25082;50.870;0.022;2022-09-20T12:13:05;19.70;68.80
37806;DHT22;25082;50.870;0.022;2022-09-20T12:15:39;19.60;68.70
37806;DHT22;25082;50.870;0.022;2022-09-20T12:18:12;19.70;68.80
37806;DHT22;25082;50.870;0.022;2022-09-20T12:28:42;19.70;63.00
37806;DHT22;25082;50.870;0.022;2022-09-20T12:36:33;19.60;62.40
37806;DHT22;25082;50.870;0.022;2022-09-20T12:44:44;19.60;62.90
37806;DHT22;25082;50.870;0.022;2022-09-20T12:47:24;19.70;61.60
37806;DHT22;25082;50.870;0.022;2022-09-20T12:49:55;19.70;60.70
37806;DHT22;25082;50.870;0.022;2022-09-20T12:55:37;19.60;61.60
37806;DHT22;25082;50.870;0.022;2022-09-20T13:13:58;19.60;60.60
37806;DHT22;25082;50.870;0.022;2022-09-20T13:19:24;19.60;60.60
37806;DHT22;25082;50.870;0.022;2022-09-20T13:22:07;19.60;60.40
37806;DHT22;25082;50.870;0.022;2022-09-20T13:24:41;19.60;60.50
37806;DHT22;25082;50.870;0.022;2022-09-20T13:27:33;19.60;60.10
37806;DHT22;25082;50.870;0.022;2022-09-20T13:30:21;19.50;60.60
37806;DHT22;25082;50.870;0.022;2022-09-20T13:32:48;19.50;60.70
37806;DHT22;25082;50.870;0.022;2022-09-20T13:35:15;19.50;60.40
37806;DHT22;25082;50.870;0.022;2022-09-20T13:40:30;19.50;61.20
37806;DHT22;25082;50.870;0.022;2022-09-20T13:43:00;19.50;60.60
37806;DHT22;25082;50.870;0.022;2022-09-20T13:45:27;19.50;61.80
37806;DHT22;25082;50.870;0.022;2022-09-20T13:47:54;19.60;62.20
37806;DHT22;25082;50.870;0.022;2022-09-20T13:52:56;19.60;60.20
37806;DHT22;25082;50.870;0.022;2022-09-20T13:55:34;19.60;60.20
37806;DHT22;25082;50.870;0.022;2022-09-20T13:58:24;19.50;59.60
37806;DHT22;25082;50.870;0.022;2022-09-20T14:00:54;19.60;59.70
37806;DHT22;25082;50.870;0.022;2022-09-20T14:03:21;19.60;60.00
37806;DHT22;25082;50.870;0.022;2022-09-20T14:05:52;19.60;59.70
37806;DHT22;25082;50.870;0.022;2022-09-20T14:08:44;19.60;60.50
37806;DHT22;25082;50.870;0.022;2022-09-20T14:11:18;19.60;58.40
37806;DHT22;25082;50.870;0.022;2022-09-20T14:13:47;19.70;58.20
37806;DHT22;25082;50.870;0.022;2022-09-20T14:16:15;19.70;59.90
37806;DHT22;25082;50.870;0.022;2022-09-20T14:18:43;19.70;58.80
37806;DHT22;25082;50.870;0.022;2022-09-20T14:21:12;19.70;59.90
37806;DHT22;25082;50.870;0.022;2022-09-20T14:26:41;19.70;61.30
37806;DHT22;25082;50.870;0.022;2022-09-20T14:29:35;19.80;60.60
37806;DHT22;25082;50.870;0.022;2022-09-20T14:37:34;19.80;59.90
37806;DHT22;25082;50.870;0.022;2022-09-20T14:40:43;19.80;59.30
37806;DHT22;25082;50.870;0.022;2022-09-20T14:43:28;19.80;60.10
37806;DHT22;25082;50.870;0.022;2022-09-20T14:45:58;19.80;59.30
37806;DHT22;25082;50.870;0.022;2022-09-20T14:48:36;19.80;59.50
37806;DHT22;25082;50.870;0.022;2022-09-20T14:53:36;19.80;59.90
37806;DHT22;25082;50.870;0.022;2022-09-20T14:56:13;19.80;60.20
37806;DHT22;25082;50.870;0.022;2022-09-20T14:59:02;19.80;60.70
37806;DHT22;25082;50.870;0.022;2022-09-20T15:01:30;19.80;61.00
37806;DHT22;25082;50.870;0.022;2022-09-20T15:03:56;19.80;61.20
37806;DHT22;25082;50.870;0.022;2022-09-20T15:06:23;19.80;60.70
37806;DHT22;25082;50.870;0.022;2022-09-20T15:08:49;19.80;61.10
37806;DHT22;25082;50.870;0.022;2022-09-20T15:11:16;19.80;60.30
37806;DHT22;25082;50.870;0.022;2022-09-20T15:13:42;19.80;60.40
37806;DHT22;25082;50.870;0.022;2022-09-20T15:16:10;19.90;60.90
37806;DHT22;25082;50.870;0.022;2022-09-20T15:18:40;19.90;59.80
37806;DHT22;25082;50.870;0.022;2022-09-20T15:21:06;19.90;60.30
37806;DHT22;25082;50.870;0.022;2022-09-20T15:23:32;19.80;60.40
37806;DHT22;25082;50.870;0.022;2022-09-20T15:25:58;19.90;60.90
37806;DHT22;25082;50.870;0.022;2022-09-20T15:28:25;19.90;61.20
37806;DHT22;25082;50.870;0.022;2022-09-20T15:30:52;19.90;61.40
37806;DHT22;25082;50.870;0.022;2022-09-20T15:33:19;19.90;61.50
37806;DHT22;25082;50.870;0.022;2022-09-20T15:35:46;20.00;61.90
37806;DHT22;25082;50.870;0.022;2022-09-20T15:38:14;19.90;61.90
37806;DHT22;25082;50.870;0.022;2022-09-20T15:40:42;20.00;62.20
37806;DHT22;25082;50.870;0.022;2022-09-20T15:43:11;20.00;62.20
37806;DHT22;25082;50.870;0.022;2022-09-20T15:45:53;20.00;62.30
37806;DHT22;25082;50.870;0.022;2022-09-20T15:48:24;20.00;62.40
37806;DHT22;25082;50.870;0.022;2022-09-20T15:53:30;20.00;62.00
37806;DHT22;25082;50.870;0.022;2022-09-20T15:55:57;20.00;62.20
37806;DHT22;25082;50.870;0.022;2022-09-20T15:58:27;20.00;62.30
37806;DHT22;25082;50.870;0.022;2022-09-20T16:00:53;20.00;61.00
37806;DHT22;25082;50.870;0.022;2022-09-20T16:03:19;20.00;60.10
37806;DHT22;25082;50.870;0.022;2022-09-20T16:05:57;19.90;60.30
37806;DHT22;25082;50.870;0.022;2022-09-20T16:08:24;19.90;58.30
37806;DHT22;25082;50.870;0.022;2022-09-20T16:10:59;19.90;59.30
37806;DHT22;25082;50.870;0.022;2022-09-20T16:13:25;19.80;59.60
37806;DHT22;25082;50.870;0.022;2022-09-20T16:15:55;19.90;60.60
37806;DHT22;25082;50.870;0.022;2022-09-20T16:18:21;19.80;60.00
37806;DHT22;25082;50.870;0.022;2022-09-20T16:21:10;19.80;59.10
37806;DHT22;25082;50.870;0.022;2022-09-20T16:23:40;19.80;58.60
37806;DHT22;25082;50.870;0.022;2022-09-20T16:26:07;19.80;58.50
37806;DHT22;25082;50.870;0.022;2022-09-20T16:28:39;19.80;59.00
37806;DHT22;25082;50.870;0.022;2022-09-20T16:31:06;19.80;58.70
37806;DHT22;25082;50.870;0.022;2022-09-20T16:33:51;19.80;59.60
37806;DHT22;25082;50.870;0.022;2022-09-20T16:36:17;19.80;58.70
37806;DHT22;25082;50.870;0.022;2022-09-20T16:38:43;19.80;58.70
37806;DHT22;25082;50.870;0.022;2022-09-20T16:41:09;19.80;58.10
37806;DHT22;25082;50.870;0.022;2022-09-20T16:43:36;19.80;57.20
37806;DHT22;25082;50.870;0.022;2022-09-20T16:46:02;19.80;57.80
37806;DHT22;25082;50.870;0.022;2022-09-20T16:48:29;19.80;57.50
37806;DHT22;25082;50.870;0.022;2022-09-20T16:50:56;19.80;56.60
37806;DHT22;25082;50.870;0.022;2022-09-20T16:53:25;19.80;58.70
37806;DHT22;25082;50.870;0.022;2022-09-20T16:55:51;19.80;58.30
37806;DHT22;25082;50.870;0.022;2022-09-20T16:58:28;19.80;58.70
37806;DHT22;25082;50.870;0.022;2022-09-20T17:01:02;19.80;58.60
37806;DHT22;25082;50.870;0.022;2022-09-20T17:03:28;19.80;59.20
37806;DHT22;25082;50.870;0.022;2022-09-20T17:06:04;19.70;58.90
37806;DHT22;25082;50.870;0.022;2022-09-20T17:08:31;19.70;59.50
37806;DHT22;25082;50.870;0.022;2022-09-20T17:11:08;19.80;59.70
37806;DHT22;25082;50.870;0.022;2022-09-20T17:13:35;19.70;58.70
37806;DHT22;25082;50.870;0.022;2022-09-20T17:16:09;19.80;59.20
37806;DHT22;25082;50.870;0.022;2022-09-20T17:18:36;19.70;57.80
37806;DHT22;25082;50.870;0.022;2022-09-20T17:21:14;19.70;57.90
37806;DHT22;25082;50.870;0.022;2022-09-20T17:23:45;19.70;57.20
37806;DHT22;25082;50.870;0.022;2022-09-20T17:26:14;19.70;58.20
37806;DHT22;25082;50.870;0.022;2022-09-20T17:28:42;19.70;58.50
37806;DHT22;25082;50.870;0.022;2022-09-20T17:31:14;19.70;58.50
37806;DHT22;25082;50.870;0.022;2022-09-20T17:33:40;19.70;59.50
37806;DHT22;25082;50.870;0.022;2022-09-20T17:36:08;19.70;59.90
37806;DHT22;25082;50.870;0.022;2022-09-20T17:38:36;19.80;60.30
37806;DHT22;25082;50.870;0.022;2022-09-20T17:41:06;19.80;60.60
37806;DHT22;25082;50.870;0.022;2022-09-20T17:43:34;19.80;60.90
37806;DHT22;25082;50.870;0.022;2022-09-20T17:46:17;19.70;60.90
37806;DHT22;25082;50.870;0.022;2022-09-20T17:48:49;19.80;61.30
37806;DHT22;25082;50.870;0.022;2022-09-20T17:51:17;19.80;61.40
37806;DHT22;25082;50.870;0.022;2022-09-20T17:53:44;19.80;61.40
37806;DHT22;25082;50.870;0.022;2022-09-20T17:56:12;19.80;61.60
37806;DHT22;25082;50.870;0.022;2022-09-20T17:58:38;19.80;61.90
37806;DHT22;25082;50.870;0.022;2022-09-20T18:01:12;19.80;62.00
37806;DHT22;25082;50.870;0.022;2022-09-20T18:03:42;19.80;62.40
37806;DHT22;25082;50.870;0.022;2022-09-20T18:06:16;19.90;62.80
37806;DHT22;25082;50.870;0.022;2022-09-20T18:08:50;19.80;62.90
37806;DHT22;25082;50.870;0.022;2022-09-20T18:11:19;19.90;63.20
37806;DHT22;25082;50.870;0.022;2022-09-20T18:13:45;19.90;63.40
37806;DHT22;25082;50.870;0.022;2022-09-20T18:16:13;19.90;63.50
37806;DHT22;25082;50.870;0.022;2022-09-20T18:18:41;19.90;63.70
37806;DHT22;25082;50.870;0.022;2022-09-20T18:21:22;19.90;63.80
37806;DHT22;25082;50.870;0.022;2022-09-20T18:23:49;19.90;63.90
37806;DHT22;25082;50.870;0.022;2022-09-20T18:26:17;19.90;64.00
37806;DHT22;25082;50.870;0.022;2022-09-20T18:28:53;19.90;64.10
37806;DHT22;25082;50.870;0.022;2022-09-20T18:31:22;19.90;64.20
37806;DHT22;25082;50.870;0.022;2022-09-20T18:33:51;19.90;64.20
37806;DHT22;25082;50.870;0.022;2022-09-20T18:36:17;19.90;64.30
37806;DHT22;25082;50.870;0.022;2022-09-20T18:38:44;19.90;64.40
37806;DHT22;25082;50.870;0.022;2022-09-20T18:41:17;19.90;64.40
37806;DHT22;25082;50.870;0.022;2022-09-20T18:43:45;20.00;64.40
37806;DHT22;25082;50.870;0.022;2022-09-20T18:46:11;19.90;64.50
37806;DHT22;25082;50.870;0.022;2022-09-20T18:48:38;19.90;64.60
37806;DHT22;25082;50.870;0.022;2022-09-20T18:51:05;19.90;64.60
37806;DHT22;25082;50.870;0.022;2022-09-20T18:53:34;19.90;64.70
37806;DHT22;25082;50.870;0.022;2022-09-20T18:58:45;19.90;64.70
37806;DHT22;25082;50.870;0.022;2022-09-20T19:12:29;19.90;65.00
37806;DHT22;25082;50.870;0.022;2022-09-20T19:20:30;19.90;65.00
37806;DHT22;25082;50.870;0.022;2022-09-20T19:23:02;19.90;65.10
37806;DHT22;25082;50.870;0.022;2022-09-20T19:25:41;19.90;65.10
37806;DHT22;25082;50.870;0.022;2022-09-20T19:28:11;19.90;65.10
37806;DHT22;25082;50.870;0.022;2022-09-20T19:30:37;19.90;65.20
37806;DHT22;25082;50.870;0.022;2022-09-20T19:33:08;19.90;65.20
37806;DHT22;25082;50.870;0.022;2022-09-20T19:35:41;19.90;65.20
37806;DHT22;25082;50.870;0.022;2022-09-20T19:38:40;19.90;65.30
37806;DHT22;25082;50.870;0.022;2022-09-20T19:46:49;19.90;65.40
37806;DHT22;25082;50.870;0.022;2022-09-20T19:49:22;19.80;65.30
37806;DHT22;25082;50.870;0.022;2022-09-20T19:51:49;19.90;65.40
37806;DHT22;25082;50.870;0.022;2022-09-20T19:54:15;19.90;65.40
37806;DHT22;25082;50.870;0.022;2022-09-20T19:56:50;19.90;65.50
37806;DHT22;25082;50.870;0.022;2022-09-20T19:59:18;19.80;65.40
37806;DHT22;25082;50.870;0.022;2022-09-20T20:01:45;19.90;65.50
37806;DHT22;25082;50.870;0.022;2022-09-20T20:04:11;19.80;65.50
37806;DHT22;25082;50.870;0.022;2022-09-20T20:06:53;19.80;65.50
37806;DHT22;25082;50.870;0.022;2022-09-20T20:09:46;19.80;65.50
37806;DHT22;25082;50.870;0.022;2022-09-20T20:15:06;19.80;65.60
37806;DHT22;25082;50.870;0.022;2022-09-20T20:17:56;19.90;65.50
37806;DHT22;25082;50.870;0.022;2022-09-20T20:20:37;19.90;65.30
37806;DHT22;25082;50.870;0.022;2022-09-20T20:28:41;19.80;65.30
37806;DHT22;25082;50.870;0.022;2022-09-20T20:31:07;19.80;65.60
37806;DHT22;25082;50.870;0.022;2022-09-20T20:33:37;19.80;65.90
37806;DHT22;25082;50.870;0.022;2022-09-20T20:36:04;19.80;65.90
37806;DHT22;25082;50.870;0.022;2022-09-20T20:38:34;19.80;65.90
37806;DHT22;25082;50.870;0.022;2022-09-20T20:41:09;19.90;65.90
37806;DHT22;25082;50.870;0.022;2022-09-20T20:43:37;19.80;65.90
37806;DHT22;25082;50.870;0.022;2022-09-20T20:46:05;19.80;65.90
37806;DHT22;25082;50.870;0.022;2022-09-20T20:48:31;19.80;65.90
37806;DHT22;25082;50.870;0.022;2022-09-20T20:51:10;19.90;66.50
37806;DHT22;25082;50.870;0.022;2022-09-20T20:53:41;19.80;65.90
37806;DHT22;25082;50.870;0.022;2022-09-20T20:56:15;19.90;66.00
37806;DHT22;25082;50.870;0.022;2022-09-20T20:58:43;19.90;66.00
37806;DHT22;25082;50.870;0.022;2022-09-20T21:01:17;19.90;65.90
37806;DHT22;25082;50.870;0.022;2022-09-20T21:03:46;19.90;66.00
37806;DHT22;25082;50.870;0.022;2022-09-20T21:06:13;19.90;66.00
37806;DHT22;25082;50.870;0.022;2022-09-20T21:08:41;19.90;65.90
37806;DHT22;25082;50.870;0.022;2022-09-20T21:11:10;19.90;66.00
37806;DHT22;25082;50.870;0.022;2022-09-20T21:13:37;19.90;66.00
37806;DHT22;25082;50.870;0.022;2022-09-20T21:16:12;19.90;66.00
37806;DHT22;25082;50.870;0.022;2022-09-20T21:18:40;19.90;66.00
37806;DHT22;25082;50.870;0.022;2022-09-20T21:21:23;19.90;66.00
37806;DHT22;25082;50.870;0.022;2022-09-20T21:23:54;19.90;66.00
37806;DHT22;25082;50.870;0.022;2022-09-20T21:26:21;19.90;66.10
37806;DHT22;25082;50.870;0.022;2022-09-20T21:28:50;19.90;66.10
37806;DHT22;25082;50.870;0.022;2022-09-20T21:31:18;19.90;66.20
37806;DHT22;25082;50.870;0.022;2022-09-20T21:33:44;19.90;66.10
37806;DHT22;25082;50.870;0.022;2022-09-20T21:36:12;19.90;66.10
37806;DHT22;25082;50.870;0.022;2022-09-20T21:38:42;19.90;66.20
37806;DHT22;25082;50.870;0.022;2022-09-20T21:41:13;19.90;66.10
37806;DHT22;25082;50.870;0.022;2022-09-20T21:43:41;19.80;66.30
37806;DHT22;25082;50.870;0.022;2022-09-20T21:46:16;19.80;66.40
37806;DHT22;25082;50.870;0.022;2022-09-20T21:48:46;19.80;66.60
37806;DHT22;25082;50.870;0.022;2022-09-20T21:51:15;19.90;66.60
37806;DHT22;25082;50.870;0.022;2022-09-20T21:53:41;19.90;66.60